sensor_id;sensor_type;location;lat;lon;timestamp;temperature;humidity
62809;DHT22;48848;39.002;-94.584;2023-04-01T00:00:57;23.20;39.50
62809;DHT22;48848;39.002;-94.584;2023-04-01T00:03:24;23.10;39.70
62809;DHT22;48848;39.002;-94.584;2023-04-01T00:05:51;23.20;39.40
62809;DHT22;48848;39.002;-94.584;2023-04-01T00:08:17;23.10;39.50
62809;DHT22;48848;39.002;-94.584;2023-04-01T00:10:43;23.10;40.00
62809;DHT22;48848;39.002;-94.584;2023-04-01T00:13:09;23.10;38.70
62809;DHT22;48848;39.002;-94.584;2023-04-01T00:15:35;23.10;38.10
62809;DHT22;48848;39.002;-94.584;2023-04-01T00:18:01;23.10;38.70
62809;DHT22;48848;39.002;-94.584;2023-04-01T00:20:27;23.10;37.90
62809;DHT22;48848;39.002;-94.584;2023-04-01T00:22:53;23.10;38.20
62809;DHT22;48848;39.002;-94.584;2023-04-01T00:25:19;23.10;38.00
62809;DHT22;48848;39.002;-94.584;2023-04-01T00:27:45;23.10;39.60
62809;DHT22;48848;39.002;-94.584;2023-04-01T00:30:11;23.10;38.00
62809;DHT22;48848;39.002;-94.584;2023-04-01T00:32:37;23.10;38.10
62809;DHT22;48848;39.002;-94.584;2023-04-01T00:35:03;23.10;37.50
62809;DHT22;48848;39.002;-94.584;2023-04-01T00:37:30;23.00;37.80
62809;DHT22;48848;39.002;-94.584;2023-04-01T00:39:56;23.10;37.30
62809;DHT22;48848;39.002;-94.584;2023-04-01T00:42:22;23.00;37.00
62809;DHT22;48848;39.002;-94.584;2023-04-01T00:44:52;23.00;36.60
62809;DHT22;48848;39.002;-94.584;2023-04-01T00:47:18;23.00;36.50
62809;DHT22;48848;39.002;-94.584;2023-04-01T00:49:45;23.00;38.50
62809;DHT22;48848;39.002;-94.584;2023-04-01T00:52:13;23.00;37.50
62809;DHT22;48848;39.002;-94.584;2023-04-01T00:54:40;23.00;38.70
62809;DHT22;48848;39.002;-94.584;2023-04-01T00:57:21;23.10;38.20
62809;DHT22;48848;39.002;-94.584;2023-04-01T00:59:50;23.10;36.80
62809;DHT22;48848;39.002;-94.584;2023-04-01T01:02:18;23.00;36.90
62809;DHT22;48848;39.002;-94.584;2023-04-01T01:04:44;23.00;36.50
62809;DHT22;48848;39.002;-94.584;2023-04-01T01:17:45;22.90;36.00
62809;DHT22;48848;39.002;-94.584;2023-04-01T01:22:55;22.90;35.70
62809;DHT22;48848;39.002;-94.584;2023-04-01T01:25:38;22.90;35.60
62809;DHT22;48848;39.002;-94.584;2023-04-01T01:31:09;22.90;36.30
62809;DHT22;48848;39.002;-94.584;2023-04-01T01:36:22;22.90;36.50
62809;DHT22;48848;39.002;-94.584;2023-04-01T01:38:48;22.90;36.00
62809;DHT22;48848;39.002;-94.584;2023-04-01T01:41:16;22.80;36.80
62809;DHT22;48848;39.002;-94.584;2023-04-01T01:43:43;22.80;36.60
62809;DHT22;48848;39.002;-94.584;2023-04-01T01:46:12;22.80;36.60
62809;DHT22;48848;39.002;-94.584;2023-04-01T01:48:40;22.80;36.40
62809;DHT22;48848;39.002;-94.584;2023-04-01T01:51:07;22.80;36.60
62809;DHT22;48848;39.002;-94.584;2023-04-01T01:53:33;22.80;36.90
62809;DHT22;48848;39.002;-94.584;2023-04-01T01:55:59;22.80;36.70
62809;DHT22;48848;39.002;-94.584;2023-04-01T01:58:27;22.80;36.40
62809;DHT22;48848;39.002;-94.584;2023-04-01T02:00:57;22.70;35.70
62809;DHT22;48848;39.002;-94.584;2023-04-01T02:03:24;22.70;36.60
62809;DHT22;48848;39.002;-94.584;2023-04-01T02:05:52;22.70;36.90
62809;DHT22;48848;39.002;-94.584;2023-04-01T02:08:25;22.70;36.90
62809;DHT22;48848;39.002;-94.584;2023-04-01T02:10:56;22.70;36.80
62809;DHT22;48848;39.002;-94.584;2023-04-01T02:13:31;22.70;38.70
62809;DHT22;48848;39.002;-94.584;2023-04-01T02:16:00;22.70;38.40
62809;DHT22;48848;39.002;-94.584;2023-04-01T02:18:27;22.70;39.20
62809;DHT22;48848;39.002;-94.584;2023-04-01T02:20:53;22.60;39.50
62809;DHT22;48848;39.002;-94.584;2023-04-01T02:23:21;22.60;39.80
62809;DHT22;48848;39.002;-94.584;2023-04-01T02:25:47;22.60;39.70
62809;DHT22;48848;39.002;-94.584;2023-04-01T02:28:13;22.60;39.90
62809;DHT22;48848;39.002;-94.584;2023-04-01T02:30:41;22.60;40.00
62809;DHT22;48848;39.002;-94.584;2023-04-01T02:33:08;22.60;40.20
62809;DHT22;48848;39.002;-94.584;2023-04-01T02:35:35;22.60;40.20
62809;DHT22;48848;39.002;-94.584;2023-04-01T02:38:02;22.60;40.30
62809;DHT22;48848;39.002;-94.584;2023-04-01T02:40:28;22.60;40.40
62809;DHT22;48848;39.002;-94.584;2023-04-01T02:42:54;22.60;40.40
62809;DHT22;48848;39.002;-94.584;2023-04-01T02:45:20;22.60;40.50
62809;DHT22;48848;39.002;-94.584;2023-04-01T02:47:46;22.60;40.50
62809;DHT22;48848;39.002;-94.584;2023-04-01T02:50:12;22.60;40.60
62809;DHT22;48848;39.002;-94.584;2023-04-01T02:52:38;22.60;40.70
62809;DHT22;48848;39.002;-94.584;2023-04-01T02:55:04;22.50;40.70
62809;DHT22;48848;39.002;-94.584;2023-04-01T02:57:30;22.50;40.70
62809;DHT22;48848;39.002;-94.584;2023-04-01T02:59:56;22.50;40.80
62809;DHT22;48848;39.002;-94.584;2023-04-01T03:02:22;22.50;40.80
62809;DHT22;48848;39.002;-94.584;2023-04-01T03:04:51;22.60;40.70
62809;DHT22;48848;39.002;-94.584;2023-04-01T03:07:17;22.60;40.70
62809;DHT22;48848;39.002;-94.584;2023-04-01T03:09:43;22.60;40.80
62809;DHT22;48848;39.002;-94.584;2023-04-01T03:12:09;22.60;40.90
62809;DHT22;48848;39.002;-94.584;2023-04-01T03:14:35;22.50;40.80
62809;DHT22;48848;39.002;-94.584;2023-04-01T03:17:00;22.50;40.80
62809;DHT22;48848;39.002;-94.584;2023-04-01T03:19:26;22.50;40.80
62809;DHT22;48848;39.002;-94.584;2023-04-01T03:21:52;22.50;40.80
62809;DHT22;48848;39.002;-94.584;2023-04-01T03:24:19;22.50;40.70
62809;DHT22;48848;39.002;-94.584;2023-04-01T03:26:45;22.50;40.80
62809;DHT22;48848;39.002;-94.584;2023-04-01T03:29:10;22.40;40.90
62809;DHT22;48848;39.002;-94.584;2023-04-01T03:31:36;22.50;40.90
62809;DHT22;48848;39.002;-94.584;2023-04-01T03:34:02;22.50;40.70
62809;DHT22;48848;39.002;-94.584;2023-04-01T03:36:28;22.40;40.70
62809;DHT22;48848;39.002;-94.584;2023-04-01T03:38:54;22.40;40.70
62809;DHT22;48848;39.002;-94.584;2023-04-01T03:41:20;22.40;40.70
62809;DHT22;48848;39.002;-94.584;2023-04-01T03:43:46;22.40;40.90
62809;DHT22;48848;39.002;-94.584;2023-04-01T03:46:16;22.30;40.40
62809;DHT22;48848;39.002;-94.584;2023-04-01T03:48:42;22.30;40.70
62809;DHT22;48848;39.002;-94.584;2023-04-01T03:51:08;22.30;40.70
62809;DHT22;48848;39.002;-94.584;2023-04-01T03:53:33;22.30;40.50
62809;DHT22;48848;39.002;-94.584;2023-04-01T03:56:03;22.30;40.80
62809;DHT22;48848;39.002;-94.584;2023-04-01T03:58:29;22.30;40.90
62809;DHT22;48848;39.002;-94.584;2023-04-01T04:00:55;22.30;40.90
62809;DHT22;48848;39.002;-94.584;2023-04-01T04:03:20;22.20;40.80
62809;DHT22;48848;39.002;-94.584;2023-04-01T04:05:47;22.20;40.90
62809;DHT22;48848;39.002;-94.584;2023-04-01T04:08:13;22.20;40.80
62809;DHT22;48848;39.002;-94.584;2023-04-01T04:10:39;22.20;40.90
62809;DHT22;48848;39.002;-94.584;2023-04-01T04:13:05;22.20;39.30
62809;DHT22;48848;39.002;-94.584;2023-04-01T04:15:31;22.20;38.60
62809;DHT22;48848;39.002;-94.584;2023-04-01T04:17:57;22.10;38.10
62809;DHT22;48848;39.002;-94.584;2023-04-01T04:20:22;22.10;37.00
62809;DHT22;48848;39.002;-94.584;2023-04-01T04:22:48;22.10;37.70
62809;DHT22;48848;39.002;-94.584;2023-04-01T04:25:14;22.10;37.00
62809;DHT22;48848;39.002;-94.584;2023-04-01T04:27:40;22.00;36.80
62809;DHT22;48848;39.002;-94.584;2023-04-01T04:30:06;22.10;36.80
62809;DHT22;48848;39.002;-94.584;2023-04-01T04:32:33;22.10;37.30
62809;DHT22;48848;39.002;-94.584;2023-04-01T04:34:59;22.00;36.90
62809;DHT22;48848;39.002;-94.584;2023-04-01T04:37:24;22.00;37.00
62809;DHT22;48848;39.002;-94.584;2023-04-01T04:39:51;22.00;36.80
62809;DHT22;48848;39.002;-94.584;2023-04-01T04:42:17;22.00;36.60
62809;DHT22;48848;39.002;-94.584;2023-04-01T04:44:43;22.00;36.30
62809;DHT22;48848;39.002;-94.584;2023-04-01T04:47:09;22.00;36.20
62809;DHT22;48848;39.002;-94.584;2023-04-01T04:49:34;22.00;35.90
62809;DHT22;48848;39.002;-94.584;2023-04-01T04:52:00;21.90;35.60
62809;DHT22;48848;39.002;-94.584;2023-04-01T04:54:26;21.90;35.60
62809;DHT22;48848;39.002;-94.584;2023-04-01T04:56:52;21.90;35.60
62809;DHT22;48848;39.002;-94.584;2023-04-01T04:59:18;21.90;35.60
62809;DHT22;48848;39.002;-94.584;2023-04-01T05:01:44;21.80;34.90
62809;DHT22;48848;39.002;-94.584;2023-04-01T05:04:10;21.80;34.80
62809;DHT22;48848;39.002;-94.584;2023-04-01T05:06:36;21.80;34.80
62809;DHT22;48848;39.002;-94.584;2023-04-01T05:09:02;21.80;34.50
62809;DHT22;48848;39.002;-94.584;2023-04-01T05:11:27;21.80;34.60
62809;DHT22;48848;39.002;-94.584;2023-04-01T05:13:53;21.70;34.20
62809;DHT22;48848;39.002;-94.584;2023-04-01T05:16:19;21.70;34.10
62809;DHT22;48848;39.002;-94.584;2023-04-01T05:18:46;21.70;34.10
62809;DHT22;48848;39.002;-94.584;2023-04-01T05:21:13;21.70;34.60
62809;DHT22;48848;39.002;-94.584;2023-04-01T05:23:39;21.60;34.20
62809;DHT22;48848;39.002;-94.584;2023-04-01T05:26:05;21.60;34.50
62809;DHT22;48848;39.002;-94.584;2023-04-01T05:28:32;21.60;34.80
62809;DHT22;48848;39.002;-94.584;2023-04-01T05:30:58;21.60;34.50
62809;DHT22;48848;39.002;-94.584;2023-04-01T05:33:25;21.60;34.30
62809;DHT22;48848;39.002;-94.584;2023-04-01T05:35:51;21.60;34.30
62809;DHT22;48848;39.002;-94.584;2023-04-01T05:38:17;21.50;34.60
62809;DHT22;48848;39.002;-94.584;2023-04-01T05:40:43;21.50;34.30
62809;DHT22;48848;39.002;-94.584;2023-04-01T05:43:09;21.50;34.20
62809;DHT22;48848;39.002;-94.584;2023-04-01T05:45:34;21.50;34.20
62809;DHT22;48848;39.002;-94.584;2023-04-01T05:48:00;21.40;34.30
62809;DHT22;48848;39.002;-94.584;2023-04-01T05:50:26;21.40;34.80
62809;DHT22;48848;39.002;-94.584;2023-04-01T05:52:52;21.40;34.00
62809;DHT22;48848;39.002;-94.584;2023-04-01T05:55:18;21.30;33.80
62809;DHT22;48848;39.002;-94.584;2023-04-01T05:57:44;21.30;34.30
62809;DHT22;48848;39.002;-94.584;2023-04-01T06:00:10;21.20;33.70
62809;DHT22;48848;39.002;-94.584;2023-04-01T06:02:36;21.30;33.80
62809;DHT22;48848;39.002;-94.584;2023-04-01T06:05:24;21.20;33.80
62809;DHT22;48848;39.002;-94.584;2023-04-01T06:07:55;21.20;33.40
62809;DHT22;48848;39.002;-94.584;2023-04-01T06:10:22;21.10;33.40
62809;DHT22;48848;39.002;-94.584;2023-04-01T06:12:57;21.10;33.30
62809;DHT22;48848;39.002;-94.584;2023-04-01T06:15:30;21.10;33.50
62809;DHT22;48848;39.002;-94.584;2023-04-01T06:30:45;20.80;32.40
62809;DHT22;48848;39.002;-94.584;2023-04-01T06:33:23;20.80;32.40
62809;DHT22;48848;39.002;-94.584;2023-04-01T06:41:13;20.70;32.80
62809;DHT22;48848;39.002;-94.584;2023-04-01T06:56:21;20.20;31.00
62809;DHT22;48848;39.002;-94.584;2023-04-01T07:01:16;20.00;29.70
62809;DHT22;48848;39.002;-94.584;2023-04-01T07:06:36;19.70;32.10
62809;DHT22;48848;39.002;-94.584;2023-04-01T07:09:09;19.70;32.70
62809;DHT22;48848;39.002;-94.584;2023-04-01T07:11:37;19.60;30.70
62809;DHT22;48848;39.002;-94.584;2023-04-01T07:17:07;19.30;32.10
62809;DHT22;48848;39.002;-94.584;2023-04-01T07:22:02;19.10;32.70
62809;DHT22;48848;39.002;-94.584;2023-04-01T07:24:33;18.90;30.50
62809;DHT22;48848;39.002;-94.584;2023-04-01T07:26:59;18.60;30.60
62809;DHT22;48848;39.002;-94.584;2023-04-01T07:29:25;18.50;30.90
62809;DHT22;48848;39.002;-94.584;2023-04-01T07:34:25;18.30;32.50
62809;DHT22;48848;39.002;-94.584;2023-04-01T07:40:06;18.20;32.60
62809;DHT22;48848;39.002;-94.584;2023-04-01T07:50:31;18.00;32.80
62809;DHT22;48848;39.002;-94.584;2023-04-01T07:57:59;17.80;33.80
62809;DHT22;48848;39.002;-94.584;2023-04-01T08:05:33;17.70;33.60
62809;DHT22;48848;39.002;-94.584;2023-04-01T08:13:35;17.40;32.50
62809;DHT22;48848;39.002;-94.584;2023-04-01T08:21:25;17.20;34.10
62809;DHT22;48848;39.002;-94.584;2023-04-01T08:23:53;17.20;33.80
62809;DHT22;48848;39.002;-94.584;2023-04-01T08:26:34;17.20;35.60
62809;DHT22;48848;39.002;-94.584;2023-04-01T08:31:35;17.40;33.50
62809;DHT22;48848;39.002;-94.584;2023-04-01T08:34:08;17.30;34.70
62809;DHT22;48848;39.002;-94.584;2023-04-01T08:36:37;17.20;34.10
62809;DHT22;48848;39.002;-94.584;2023-04-01T08:39:06;17.00;32.50
62809;DHT22;48848;39.002;-94.584;2023-04-01T08:46:57;16.70;33.50
62809;DHT22;48848;39.002;-94.584;2023-04-01T08:55:03;16.80;34.90
62809;DHT22;48848;39.002;-94.584;2023-04-01T09:13:29;16.70;34.70
62809;DHT22;48848;39.002;-94.584;2023-04-01T09:16:23;16.90;34.00
62809;DHT22;48848;39.002;-94.584;2023-04-01T09:21:29;16.60;34.60
62809;DHT22;48848;39.002;-94.584;2023-04-01T09:26:48;16.70;34.10
62809;DHT22;48848;39.002;-94.584;2023-04-01T09:32:34;16.50;34.60
62809;DHT22;48848;39.002;-94.584;2023-04-01T09:34:52;16.60;34.90
62809;DHT22;48848;39.002;-94.584;2023-04-01T09:43:00;16.80;35.40
62809;DHT22;48848;39.002;-94.584;2023-04-01T10:35:26;16.40;34.90
62809;DHT22;48848;39.002;-94.584;2023-04-01T10:40:46;16.50;35.40
62809;DHT22;48848;39.002;-94.584;2023-04-01T10:43:40;16.40;34.50
62809;DHT22;48848;39.002;-94.584;2023-04-01T11:02:04;18.40;36.40
62809;DHT22;48848;39.002;-94.584;2023-04-01T11:33:37;20.30;33.30
62809;DHT22;48848;39.002;-94.584;2023-04-01T11:46:31;18.00;33.90
62809;DHT22;48848;39.002;-94.584;2023-04-01T11:49:04;17.90;34.20
62809;DHT22;48848;39.002;-94.584;2023-04-01T12:22:59;15.80;37.60
62809;DHT22;48848;39.002;-94.584;2023-04-01T12:28:29;15.90;38.90
62809;DHT22;48848;39.002;-94.584;2023-04-01T12:31:07;16.10;38.60
62809;DHT22;48848;39.002;-94.584;2023-04-01T12:33:45;16.60;38.30
62809;DHT22;48848;39.002;-94.584;2023-04-01T12:36:17;17.30;36.90
62809;DHT22;48848;39.002;-94.584;2023-04-01T12:41:16;17.00;37.40
62809;DHT22;48848;39.002;-94.584;2023-04-01T12:43:51;16.60;38.40
62809;DHT22;48848;39.002;-94.584;2023-04-01T12:48:57;16.20;36.90
62809;DHT22;48848;39.002;-94.584;2023-04-01T13:01:52;16.20;40.00
62809;DHT22;48848;39.002;-94.584;2023-04-01T13:19:31;16.40;37.40
62809;DHT22;48848;39.002;-94.584;2023-04-01T13:29:35;16.10;37.50
62809;DHT22;48848;39.002;-94.584;2023-04-01T13:34:31;16.10;38.00
62809;DHT22;48848;39.002;-94.584;2023-04-01T13:37:03;16.10;38.60
62809;DHT22;48848;39.002;-94.584;2023-04-01T13:39:41;16.10;39.50
62809;DHT22;48848;39.002;-94.584;2023-04-01T13:42:18;16.00;39.60
62809;DHT22;48848;39.002;-94.584;2023-04-01T13:44:48;16.10;40.90
62809;DHT22;48848;39.002;-94.584;2023-04-01T13:52:49;16.20;40.20
62809;DHT22;48848;39.002;-94.584;2023-04-01T13:56:02;16.10;40.20
62809;DHT22;48848;39.002;-94.584;2023-04-01T13:58:17;16.20;42.40
62809;DHT22;48848;39.002;-94.584;2023-04-01T14:08:38;17.10;39.90
62809;DHT22;48848;39.002;-94.584;2023-04-01T14:13:43;16.50;38.50
62809;DHT22;48848;39.002;-94.584;2023-04-01T14:16:19;16.40;39.00
62809;DHT22;48848;39.002;-94.584;2023-04-01T14:18:53;16.30;39.60
62809;DHT22;48848;39.002;-94.584;2023-04-01T14:31:59;16.10;38.20
62809;DHT22;48848;39.002;-94.584;2023-04-01T14:50:12;18.00;38.00
62809;DHT22;48848;39.002;-94.584;2023-04-01T14:52:40;17.50;39.00
62809;DHT22;48848;39.002;-94.584;2023-04-01T14:55:21;17.10;39.70
62809;DHT22;48848;39.002;-94.584;2023-04-01T15:03:32;16.50;38.90
62809;DHT22;48848;39.002;-94.584;2023-04-01T15:06:26;16.40;39.60
62809;DHT22;48848;39.002;-94.584;2023-04-01T15:13:54;16.30;40.10
62809;DHT22;48848;39.002;-94.584;2023-04-01T15:21:38;16.40;40.10
62809;DHT22;48848;39.002;-94.584;2023-04-01T15:31:46;17.30;39.60
62809;DHT22;48848;39.002;-94.584;2023-04-01T15:39:37;17.20;38.20
62809;DHT22;48848;39.002;-94.584;2023-04-01T15:49:54;16.60;39.90
62809;DHT22;48848;39.002;-94.584;2023-04-01T15:52:40;16.60;39.80
62809;DHT22;48848;39.002;-94.584;2023-04-01T15:55:14;16.50;39.60
62809;DHT22;48848;39.002;-94.584;2023-04-01T16:00:30;16.60;39.70
62809;DHT22;48848;39.002;-94.584;2023-04-01T16:23:56;19.40;35.90
62809;DHT22;48848;39.002;-94.584;2023-04-01T16:28:57;18.00;37.60
62809;DHT22;48848;39.002;-94.584;2023-04-01T16:31:35;17.80;38.30
62809;DHT22;48848;39.002;-94.584;2023-04-01T16:34:10;17.60;37.80
62809;DHT22;48848;39.002;-94.584;2023-04-01T16:37:05;17.50;39.50
62809;DHT22;48848;39.002;-94.584;2023-04-01T16:42:11;19.10;36.90
62809;DHT22;48848;39.002;-94.584;2023-04-01T16:44:59;20.00;36.90
62809;DHT22;48848;39.002;-94.584;2023-04-01T16:47:46;20.20;34.80
62809;DHT22;48848;39.002;-94.584;2023-04-01T16:50:14;19.20;36.50
62809;DHT22;48848;39.002;-94.584;2023-04-01T16:52:53;18.60;38.10
62809;DHT22;48848;39.002;-94.584;2023-04-01T16:56:02;18.40;38.70
62809;DHT22;48848;39.002;-94.584;2023-04-01T16:58:28;18.10;38.60
62809;DHT22;48848;39.002;-94.584;2023-04-01T17:01:21;18.00;39.00
62809;DHT22;48848;39.002;-94.584;2023-04-01T17:03:53;17.90;39.50
62809;DHT22;48848;39.002;-94.584;2023-04-01T17:06:25;17.80;39.50
62809;DHT22;48848;39.002;-94.584;2023-04-01T17:12:12;17.70;38.80
62809;DHT22;48848;39.002;-94.584;2023-04-01T17:17:09;17.70;39.40
62809;DHT22;48848;39.002;-94.584;2023-04-01T17:20:02;18.60;39.50
62809;DHT22;48848;39.002;-94.584;2023-04-01T17:33:02;18.50;36.50
62809;DHT22;48848;39.002;-94.584;2023-04-01T17:40:41;18.30;38.30
62809;DHT22;48848;39.002;-94.584;2023-04-01T17:43:22;18.20;37.30
62809;DHT22;48848;39.002;-94.584;2023-04-01T17:45:54;18.10;37.00
62809;DHT22;48848;39.002;-94.584;2023-04-01T17:56:24;18.40;39.20
62809;DHT22;48848;39.002;-94.584;2023-04-01T18:01:31;18.30;39.60
62809;DHT22;48848;39.002;-94.584;2023-04-01T18:06:29;18.40;39.90
62809;DHT22;48848;39.002;-94.584;2023-04-01T18:09:09;18.40;39.50
62809;DHT22;48848;39.002;-94.584;2023-04-01T18:14:22;18.50;39.10
62809;DHT22;48848;39.002;-94.584;2023-04-01T18:22:09;18.70;39.80
62809;DHT22;48848;39.002;-94.584;2023-04-01T18:24:44;18.60;39.00
62809;DHT22;48848;39.002;-94.584;2023-04-01T18:30:26;18.60;38.90
62809;DHT22;48848;39.002;-94.584;2023-04-01T18:45:46;20.50;37.40
62809;DHT22;48848;39.002;-94.584;2023-04-01T18:51:00;20.20;34.10
62809;DHT22;48848;39.002;-94.584;2023-04-01T18:56:45;19.30;35.70
62809;DHT22;48848;39.002;-94.584;2023-04-01T18:58:59;19.30;36.10
62809;DHT22;48848;39.002;-94.584;2023-04-01T19:01:45;19.10;36.00
62809;DHT22;48848;39.002;-94.584;2023-04-01T19:06:50;19.10;36.60
62809;DHT22;48848;39.002;-94.584;2023-04-01T19:09:24;19.10;36.60
62809;DHT22;48848;39.002;-94.584;2023-04-01T19:17:06;19.00;36.70
62809;DHT22;48848;39.002;-94.584;2023-04-01T19:19:47;19.00;36.90
62809;DHT22;48848;39.002;-94.584;2023-04-01T19:27:26;19.00;36.90
62809;DHT22;48848;39.002;-94.584;2023-04-01T19:32:27;19.00;36.90
62809;DHT22;48848;39.002;-94.584;2023-04-01T19:37:51;19.00;36.50
62809;DHT22;48848;39.002;-94.584;2023-04-01T19:52:50;19.10;35.40
62809;DHT22;48848;39.002;-94.584;2023-04-01T20:13:25;19.30;34.50
62809;DHT22;48848;39.002;-94.584;2023-04-01T20:16:00;19.30;34.90
62809;DHT22;48848;39.002;-94.584;2023-04-01T20:18:33;19.30;34.20
62809;DHT22;48848;39.002;-94.584;2023-04-01T20:21:45;19.40;34.30
62809;DHT22;48848;39.002;-94.584;2023-04-01T20:24:31;19.40;34.30
62809;DHT22;48848;39.002;-94.584;2023-04-01T20:26:33;19.40;33.80
62809;DHT22;48848;39.002;-94.584;2023-04-01T20:31:35;19.40;33.60
62809;DHT22;48848;39.002;-94.584;2023-04-01T20:36:51;19.50;33.10
62809;DHT22;48848;39.002;-94.584;2023-04-01T20:49:54;19.60;33.20
62809;DHT22;48848;39.002;-94.584;2023-04-01T20:52:25;19.60;32.70
62809;DHT22;48848;39.002;-94.584;2023-04-01T20:57:24;19.70;32.30
62809;DHT22;48848;39.002;-94.584;2023-04-01T21:02:32;19.70;32.00
62809;DHT22;48848;39.002;-94.584;2023-04-01T21:07:45;19.80;32.00
62809;DHT22;48848;39.002;-94.584;2023-04-01T21:15:33;19.80;31.90
62809;DHT22;48848;39.002;-94.584;2023-04-01T21:18:10;19.90;31.50
62809;DHT22;48848;39.002;-94.584;2023-04-01T21:20:46;19.90;31.90
62809;DHT22;48848;39.002;-94.584;2023-04-01T21:23:24;19.90;31.20
62809;DHT22;48848;39.002;-94.584;2023-04-01T21:26:09;19.90;31.20
62809;DHT22;48848;39.002;-94.584;2023-04-01T21:28:46;19.90;31.60
62809;DHT22;48848;39.002;-94.584;2023-04-01T21:31:27;19.90;31.50
62809;DHT22;48848;39.002;-94.584;2023-04-01T21:39:36;20.00;31.70
62809;DHT22;48848;39.002;-94.584;2023-04-01T21:45:10;20.00;31.70
62809;DHT22;48848;39.002;-94.584;2023-04-01T21:47:38;20.00;31.10
62809;DHT22;48848;39.002;-94.584;2023-04-01T21:55:20;20.00;30.60
62809;DHT22;48848;39.002;-94.584;2023-04-01T22:00:28;20.00;30.50
62809;DHT22;48848;39.002;-94.584;2023-04-01T22:03:02;20.00;30.60
62809;DHT22;48848;39.002;-94.584;2023-04-01T22:05:32;20.00;30.50
62809;DHT22;48848;39.002;-94.584;2023-04-01T22:10:58;20.00;30.90
62809;DHT22;48848;39.002;-94.584;2023-04-01T22:13:31;20.10;30.80
62809;DHT22;48848;39.002;-94.584;2023-04-01T22:18:38;20.10;30.40
62809;DHT22;48848;39.002;-94.584;2023-04-01T22:24:04;20.10;31.10
62809;DHT22;48848;39.002;-94.584;2023-04-01T22:26:38;20.20;31.00
62809;DHT22;48848;39.002;-94.584;2023-04-01T22:29:07;20.20;31.10
62809;DHT22;48848;39.002;-94.584;2023-04-01T22:31:41;20.20;30.70
62809;DHT22;48848;39.002;-94.584;2023-04-01T22:42:00;20.40;31.00
62809;DHT22;48848;39.002;-94.584;2023-04-01T22:44:33;20.40;30.40
62809;DHT22;48848;39.002;-94.584;2023-04-01T22:52:28;20.30;30.10
62809;DHT22;48848;39.002;-94.584;2023-04-01T22:55:03;20.30;30.00
62809;DHT22;48848;39.002;-94.584;2023-04-01T23:00:00;20.40;30.00
62809;DHT22;48848;39.002;-94.584;2023-04-01T23:02:36;20.30;30.00
62809;DHT22;48848;39.002;-94.584;2023-04-01T23:05:03;20.40;30.00
62809;DHT22;48848;39.002;-94.584;2023-04-01T23:07:45;20.30;30.00
62809;DHT22;48848;39.002;-94.584;2023-04-01T23:10:19;20.40;30.00
62809;DHT22;48848;39.002;-94.584;2023-04-01T23:12:46;20.40;29.90
62809;DHT22;48848;39.002;-94.584;2023-04-01T23:15:13;20.40;29.90
62809;DHT22;48848;39.002;-94.584;2023-04-01T23:20:17;20.40;29.70
62809;DHT22;48848;39.002;-94.584;2023-04-01T23:27:56;20.50;29.80
62809;DHT22;48848;39.002;-94.584;2023-04-01T23:33:26;20.50;29.80
62809;DHT22;48848;39.002;-94.584;2023-04-01T23:38:22;20.60;30.10
62809;DHT22;48848;39.002;-94.584;2023-04-01T23:40:49;20.60;29.90
62809;DHT22;48848;39.002;-94.584;2023-04-01T23:43:26;20.70;29.80
62809;DHT22;48848;39.002;-94.584;2023-04-01T23:45:56;20.70;29.80
62809;DHT22;48848;39.002;-94.584;2023-04-01T23:48:27;20.60;29.80
62809;DHT22;48848;39.002;-94.584;2023-04-01T23:50:54;20.60;29.80
62809;DHT22;48848;39.002;-94.584;2023-04-01T23:53:22;20.60;29.70
62809;DHT22;48848;39.002;-94.584;2023-04-01T23:55:50;20.60;29.70
